Terminal Aerodrome Forecast
Issued by NWS

Current Version | Previous Version | Text Only | Print | Product List | Glossary On
Versions: 1 2 3 4 5 6 7 8 9 10 11 12 13 14
000
FTUS42 TJSJ 202300 RRA
TAFJPS
TAF
TJPS 202341Z 2100/2124 10007KT P6SM FEW030
     FM211400 15012KT P6SM FEW030
     FM212330 05004KT P6SM FEW025
      AMD NOT SKED TIL 210300=

USA.gov is the U.S. government's official web portal to all federal, state and local government web resources and services.